SYH weather

Syangboche Airport
Namche Bazaar, Sagarmatha, Nepal

Public forecast

Using degrees Celsius for public forecast. Weather courtesy of forecast.io.

METAR (pilot weather report)

Closest report is Tribhuvan International Airport, 72.2 nm (133.8 km) W. Retrieved 2019/09/22 06:20 UTC (24 minutes ago):

VNKT 220620Z 16004KT 090V220 8000 VCRA FEW015 FEW025CB SCT030 BKN100 25/18 Q1019 NOSIG CB TO SE

TAF (pilot weather forecast)

Closest forecast is Tribhuvan International Airport, 72.2 nm (133.8 km) W. Retrieved 2019/09/22 06:45 UTC (0 seconds ago):

TAF TAF VNKT 220500Z 2206/2306 12005KT 8000 FEW015 SCT030 BKN100 BECMG 2207/2208 25008KT FEW015 SCT030 BKN100 PROB40 2208/2214 28010KT 4000 -TSRA/SHRA FEW025CB BECMG 2214/2215 VRB02KT 7000 FEW015 SCT030 BKN100 PROB30 2216/2220 4000 -RA/SHRA FEW025CB BECMG 2300/2302 00000KT 5000 BR FEW010 SCT025 BKN100 BECMG 2304/2305 08005KT 7000 FEW015 SCT100